Time;durP1;ratioP1;P1;durP2;ratioP2;P2;SDS_P1;SDS_P2;PMS_P1;PMS_P2;Temp;Humidity;BMP_temperature;BMP_pressure;BME280_temperature;BME280_humidity;BME280_pressure;Samples;Min_cycle;Max_cycle;Signal;HPM_P1;HPM_P2
2021/06/27 00:01:36;;;;;;;2.17;1.70;;;17.70;98.00;;;;;;5091025;28;20510;-73
2021/06/27 00:04:03;;;;;;;1.70;1.43;;;17.60;98.00;;;;;;5092213;28;20927;-73
2021/06/27 00:06:30;;;;;;;1.77;1.30;;;17.50;98.00;;;;;;5090717;28;20925;-73
2021/06/27 00:08:57;;;;;;;1.80;1.70;;;17.40;98.00;;;;;;5092000;28;20448;-74
2021/06/27 00:11:25;;;;;;;1.93;1.87;;;17.40;98.00;;;;;;5089251;28;21012;-73
2021/06/27 00:13:53;;;;;;;1.50;1.50;;;17.40;98.00;;;;;;5091933;28;20460;-73
2021/06/27 00:16:22;;;;;;;1.50;1.27;;;17.30;98.00;;;;;;5089555;28;20488;-74
2021/06/27 00:18:50;;;;;;;1.60;1.40;;;17.30;98.00;;;;;;5092303;28;20452;-73
2021/06/27 00:21:17;;;;;;;1.97;1.70;;;17.40;98.00;;;;;;5089348;28;20472;-73
2021/06/27 00:23:46;;;;;;;1.77;1.50;;;17.30;98.00;;;;;;5091778;28;20478;-74
2021/06/27 00:26:16;;;;;;;2.97;2.27;;;17.30;98.00;;;;;;5089372;28;20509;-73
2021/06/27 00:28:43;;;;;;;1.50;1.50;;;17.10;98.00;;;;;;5091673;28;20468;-73
2021/06/27 00:31:13;;;;;;;1.20;1.20;;;17.10;98.00;;;;;;5089321;28;20448;-74
2021/06/27 00:33:40;;;;;;;2.40;1.50;;;17.00;98.00;;;;;;5091962;28;20467;-74
2021/06/27 00:36:08;;;;;;;1.40;1.20;;;17.00;98.00;;;;;;5089161;28;20502;-74
2021/06/27 00:38:36;;;;;;;2.90;1.63;;;16.90;98.00;;;;;;5091772;28;20810;-73
2021/06/27 00:41:03;;;;;;;1.30;1.30;;;16.90;98.00;;;;;;5088795;28;20507;-73
2021/06/27 00:43:32;;;;;;;1.60;1.50;;;16.90;98.00;;;;;;5091611;28;20525;-73
2021/06/27 00:45:59;;;;;;;2.30;1.90;;;16.80;98.00;;;;;;5088837;28;20950;-73
2021/06/27 00:48:28;;;;;;;1.90;1.50;;;16.90;98.00;;;;;;5091559;28;20448;-73
2021/06/27 00:50:57;;;;;;;1.70;1.60;;;16.80;98.00;;;;;;5088740;28;20768;-73
2021/06/27 00:53:24;;;;;;;3.40;2.20;;;16.80;98.00;;;;;;5091363;28;20513;-72
2021/06/27 00:55:58;;;;;;;1.63;1.50;;;16.80;98.00;;;;;;5088740;28;20463;-73
2021/06/27 00:58:26;;;;;;;1.40;1.20;;;16.90;98.00;;;;;;5091389;28;20576;-74
2021/06/27 01:00:54;;;;;;;1.37;1.37;;;16.80;98.00;;;;;;5088751;28;20866;-73
2021/06/27 01:03:22;;;;;;;3.30;1.97;;;17.00;98.00;;;;;;5090204;28;20482;-73
2021/06/27 01:05:51;;;;;;;1.80;1.57;;;16.80;98.00;;;;;;5089168;28;20513;-73
2021/06/27 01:08:19;;;;;;;1.50;1.17;;;16.80;98.00;;;;;;5091496;28;20452;-72
2021/06/27 01:10:47;;;;;;;1.50;1.40;;;16.70;98.00;;;;;;5088736;28;21076;-73
2021/06/27 01:13:15;;;;;;;1.67;1.40;;;16.80;98.00;;;;;;5090685;28;20460;-73
2021/06/27 01:15:42;;;;;;;2.17;1.60;;;16.80;98.00;;;;;;5088706;28;20969;-73
2021/06/27 01:18:10;;;;;;;1.63;1.40;;;16.90;98.00;;;;;;5091473;28;21021;-74
2021/06/27 01:20:39;;;;;;;2.07;1.70;;;16.90;98.00;;;;;;5089069;28;20456;-74
2021/06/27 01:23:10;;;;;;;1.40;1.20;;;17.00;98.00;;;;;;5091422;28;20464;-74
2021/06/27 01:25:39;;;;;;;1.30;1.30;;;17.00;98.00;;;;;;5088399;28;20455;-73
2021/06/27 01:28:07;;;;;;;1.97;1.40;;;17.10;98.00;;;;;;5091332;28;20475;-74
2021/06/27 01:30:35;;;;;;;1.70;1.40;;;16.90;98.00;;;;;;5088743;28;20521;-73
2021/06/27 01:33:05;;;;;;;2.60;1.87;;;17.00;98.00;;;;;;5094041;28;20456;-73
2021/06/27 01:35:33;;;;;;;1.60;1.43;;;16.90;98.00;;;;;;5092599;28;20467;-73
2021/06/27 01:38:01;;;;;;;2.07;1.63;;;16.90;98.00;;;;;;5095077;28;20483;-73
2021/06/27 01:40:31;;;;;;;2.07;1.97;;;16.80;98.00;;;;;;5092609;28;20545;-74
2021/06/27 01:43:11;;;;;;;1.83;1.50;;;16.90;98.00;;;;;;5094018;28;20460;-73
2021/06/27 01:45:39;;;;;;;2.00;1.60;;;17.00;98.00;;;;;;5092575;28;20520;-74
2021/06/27 01:48:09;;;;;;;1.27;1.27;;;17.10;98.00;;;;;;5094912;28;21014;-74
2021/06/27 01:50:38;;;;;;;2.27;1.57;;;16.90;98.00;;;;;;5092339;28;20456;-73
2021/06/27 01:53:06;;;;;;;1.60;1.50;;;16.70;98.00;;;;;;5094845;28;20467;-73
2021/06/27 01:55:35;;;;;;;1.63;1.20;;;16.60;98.00;;;;;;5092285;28;20520;-73
2021/06/27 02:01:26;;;;;;;1.87;1.50;;;16.40;98.00;;;;;;5092296;28;20523;-73
2021/06/27 02:03:53;;;;;;;3.73;1.70;;;16.50;98.00;;;;;;5094617;28;20519;-73
2021/06/27 02:06:22;;;;;;;1.40;1.27;;;16.50;98.00;;;;;;5092114;28;21007;-74
2021/06/27 02:08:49;;;;;;;1.70;1.60;;;16.60;98.00;;;;;;5094501;28;20531;-73
2021/06/27 02:11:20;;;;;;;2.13;1.60;;;16.50;98.00;;;;;;5092158;28;20850;-74
2021/06/27 02:13:47;;;;;;;2.40;1.40;;;16.40;98.00;;;;;;5094536;28;20513;-74
2021/06/27 02:16:14;;;;;;;1.70;1.60;;;16.30;98.00;;;;;;5092003;28;20440;-73
2021/06/27 02:18:44;;;;;;;2.03;1.60;;;16.20;98.00;;;;;;5094515;28;20480;-73
2021/06/27 02:21:14;;;;;;;2.80;1.67;;;16.10;98.00;;;;;;5091825;28;20456;-73
2021/06/27 02:23:42;;;;;;;1.83;1.67;;;16.20;98.00;;;;;;5094299;28;20456;-73
2021/06/27 02:26:09;;;;;;;1.30;1.30;;;16.30;98.00;;;;;;5091817;28;20590;-73
2021/06/27 02:28:38;;;;;;;2.73;1.73;;;16.40;98.00;;;;;;5094222;28;20870;-73
2021/06/27 02:31:05;;;;;;;1.83;1.27;;;16.50;98.00;;;;;;5090294;28;20456;-73
2021/06/27 02:33:32;;;;;;;1.77;1.33;;;16.60;98.00;;;;;;5093995;28;20452;-73
2021/06/27 02:36:00;;;;;;;1.63;1.20;;;16.70;98.00;;;;;;5091556;28;20467;-73
2021/06/27 02:38:27;;;;;;;3.67;1.97;;;16.70;98.00;;;;;;5093987;28;20484;-74
2021/06/27 02:40:55;;;;;;;1.90;1.90;;;16.60;98.00;;;;;;5091223;28;20459;-74
2021/06/27 02:43:24;;;;;;;1.60;1.50;;;16.50;98.00;;;;;;5092976;28;20456;-73
2021/06/27 02:45:54;;;;;;;2.70;1.50;;;16.40;98.00;;;;;;5091168;28;20467;-73
2021/06/27 02:48:22;;;;;;;2.07;1.60;;;16.20;98.00;;;;;;5093881;28;20455;-72
2021/06/27 02:50:49;;;;;;;1.53;1.47;;;16.20;98.00;;;;;;5089902;28;20448;-73
2021/06/27 02:53:16;;;;;;;1.70;1.40;;;16.10;98.00;;;;;;5093725;28;20515;-74
2021/06/27 02:55:43;;;;;;;1.20;1.10;;;16.10;98.00;;;;;;5090923;28;20493;-73
2021/06/27 02:58:12;;;;;;;2.70;1.43;;;16.20;98.00;;;;;;5093510;28;20480;-73
2021/06/27 03:00:39;;;;;;;2.03;1.50;;;16.20;98.00;;;;;;5091081;28;20460;-72
2021/06/27 03:03:07;;;;;;;1.87;1.73;;;16.30;98.00;;;;;;5093403;28;20459;-74
2021/06/27 03:05:34;;;;;;;1.30;1.20;;;16.50;98.00;;;;;;5090708;28;20455;-73
2021/06/27 03:08:02;;;;;;;1.30;1.20;;;16.50;98.00;;;;;;5093190;28;20533;-73
2021/06/27 03:10:29;;;;;;;1.60;1.30;;;16.60;98.00;;;;;;5089672;28;20521;-74
2021/06/27 03:12:56;;;;;;;1.40;1.30;;;16.60;98.00;;;;;;5093348;28;20533;-73
2021/06/27 03:15:23;;;;;;;2.60;1.70;;;16.50;98.00;;;;;;5090658;28;20805;-73
2021/06/27 03:17:50;;;;;;;1.43;1.30;;;16.30;98.00;;;;;;5093007;28;20535;-73
2021/06/27 03:20:19;;;;;;;1.40;1.10;;;16.10;98.00;;;;;;5089619;28;20519;-74
2021/06/27 03:22:47;;;;;;;2.03;1.57;;;16.00;98.00;;;;;;5093242;28;20478;-73
2021/06/27 03:25:16;;;;;;;2.53;1.77;;;15.90;98.00;;;;;;5090730;28;20797;-72
2021/06/27 03:27:43;;;;;;;1.60;1.40;;;15.90;98.00;;;;;;5091813;28;20505;-73
2021/06/27 03:30:13;;;;;;;1.73;1.20;;;16.00;98.00;;;;;;5090503;28;20523;-72
2021/06/27 03:32:41;;;;;;;1.50;1.40;;;16.00;98.00;;;;;;5092906;28;20459;-73
2021/06/27 03:35:11;;;;;;;1.60;1.17;;;16.20;98.00;;;;;;5088908;28;20506;-73
2021/06/27 03:37:48;;;;;;;1.30;1.20;;;16.30;98.00;;;;;;5091568;28;20491;-73
2021/06/27 03:40:18;;;;;;;1.80;1.50;;;16.40;98.00;;;;;;5090165;28;20452;-73
2021/06/27 03:42:46;;;;;;;3.00;1.37;;;16.40;98.00;;;;;;5092640;28;20942;-73
2021/06/27 03:45:14;;;;;;;2.07;1.67;;;16.40;98.00;;;;;;5088595;28;20463;-73
2021/06/27 03:47:42;;;;;;;1.20;1.20;;;16.50;98.00;;;;;;5092539;28;20831;-73
2021/06/27 03:50:10;;;;;;;2.70;1.73;;;16.60;98.00;;;;;;5089689;28;20509;-74
2021/06/27 03:52:39;;;;;;;2.17;1.67;;;16.40;98.00;;;;;;5091939;28;20809;-72
2021/06/27 03:55:08;;;;;;;1.30;1.30;;;16.30;98.00;;;;;;5088104;28;20451;-73
2021/06/27 03:57:35;;;;;;;1.30;1.27;;;16.30;98.00;;;;;;5092263;28;20549;-73
2021/06/27 04:00:02;;;;;;;9.83;1.33;;;16.30;98.00;;;;;;5089442;28;20584;-73
2021/06/27 04:02:29;;;;;;;2.17;1.40;;;16.40;98.00;;;;;;5092099;28;20485;-72
2021/06/27 04:04:56;;;;;;;1.50;1.40;;;16.40;98.00;;;;;;5088548;28;20506;-73
2021/06/27 04:07:23;;;;;;;2.07;1.47;;;16.60;98.00;;;;;;5092458;28;20479;-73
2021/06/27 04:09:52;;;;;;;1.57;1.40;;;16.60;98.00;;;;;;5089265;28;20456;-73
2021/06/27 04:12:19;;;;;;;1.50;1.40;;;16.60;98.00;;;;;;5092025;28;20523;-73
2021/06/27 04:14:46;;;;;;;1.80;1.67;;;16.70;98.00;;;;;;5089318;28;20505;-72
2021/06/27 04:17:17;;;;;;;1.50;1.40;;;16.70;98.00;;;;;;5092068;28;20858;-74
2021/06/27 04:19:44;;;;;;;2.80;1.60;;;16.70;98.00;;;;;;5089273;28;20594;-73
2021/06/27 04:22:11;;;;;;;2.33;1.50;;;16.70;98.00;;;;;;5092125;28;20517;-73
2021/06/27 04:24:39;;;;;;;1.50;1.50;;;16.70;98.00;;;;;;5088343;28;20460;-73
2021/06/27 04:27:08;;;;;;;1.63;1.30;;;16.60;98.00;;;;;;5090836;28;20510;-72
2021/06/27 04:29:35;;;;;;;2.07;1.70;;;16.50;98.00;;;;;;5087924;28;20981;-72
2021/06/27 04:32:02;;;;;;;2.23;1.50;;;16.50;98.00;;;;;;5091824;28;20484;-72
2021/06/27 04:34:29;;;;;;;1.33;1.20;;;16.70;98.00;;;;;;5092006;28;20463;-73
2021/06/27 04:36:56;;;;;;;1.60;1.30;;;16.70;98.00;;;;;;5089730;28;21015;-73
2021/06/27 04:39:24;;;;;;;1.30;1.20;;;16.60;98.00;;;;;;5091885;28;20556;-72
2021/06/27 04:41:51;;;;;;;1.47;1.40;;;16.70;98.00;;;;;;5088829;28;20472;-73
2021/06/27 04:44:20;;;;;;;2.77;1.60;;;16.80;98.00;;;;;;5091771;28;20512;-73
2021/06/27 04:46:47;;;;;;;1.87;1.77;;;16.70;98.00;;;;;;5088621;28;20460;-74
2021/06/27 04:49:15;;;;;;;2.00;1.47;;;16.70;98.00;;;;;;5091804;28;20452;-73
2021/06/27 04:51:42;;;;;;;1.20;1.00;;;16.70;98.00;;;;;;5087506;28;20843;-74
2021/06/27 04:54:09;;;;;;;1.60;1.50;;;16.80;98.00;;;;;;5091639;28;20444;-73
2021/06/27 04:56:36;;;;;;;1.40;1.30;;;17.00;98.00;;;;;;5087348;28;20456;-73
2021/06/27 04:59:04;;;;;;;1.77;1.40;;;17.00;98.00;;;;;;5091545;28;20519;-74
2021/06/27 05:01:33;;;;;;;1.83;1.40;;;17.00;98.00;;;;;;5088801;28;20512;-73
2021/06/27 05:04:00;;;;;;;2.47;1.80;;;17.00;98.00;;;;;;5091740;28;20524;-73
2021/06/27 05:06:27;;;;;;;2.50;1.90;;;17.10;98.00;;;;;;5088660;28;20460;-73
2021/06/27 05:08:55;;;;;;;2.17;1.63;;;17.20;98.00;;;;;;5094739;28;21147;-73
2021/06/27 05:11:22;;;;;;;1.50;1.43;;;17.20;98.00;;;;;;5093045;28;20463;-74
2021/06/27 05:13:50;;;;;;;1.50;1.50;;;17.30;98.00;;;;;;5095754;28;20455;-73
2021/06/27 05:16:17;;;;;;;2.27;1.43;;;17.30;98.00;;;;;;5092167;28;20828;-72
2021/06/27 05:18:46;;;;;;;2.00;1.70;;;17.40;98.00;;;;;;5095014;28;20520;-72
2021/06/27 05:21:13;;;;;;;1.93;1.30;;;17.50;98.00;;;;;;5091626;28;20505;-73
2021/06/27 05:23:40;;;;;;;1.40;1.30;;;17.70;98.00;;;;;;5095017;28;20516;-74
2021/06/27 05:26:08;;;;;;;1.87;1.30;;;17.80;98.00;;;;;;5090709;28;20470;-73
2021/06/27 05:28:35;;;;;;;1.70;1.53;;;17.90;98.00;;;;;;5095218;28;20464;-73
2021/06/27 05:31:02;;;;;;;1.60;1.60;;;18.00;98.00;;;;;;5091781;28;20954;-73
2021/06/27 05:33:29;;;;;;;1.97;1.40;;;18.00;98.00;;;;;;5095060;28;20528;-73
2021/06/27 05:35:58;;;;;;;1.20;1.20;;;18.00;98.00;;;;;;5092423;28;20499;-73
2021/06/27 05:38:25;;;;;;;3.50;1.63;;;18.00;98.00;;;;;;5094992;28;20520;-74
2021/06/27 05:40:52;;;;;;;1.40;1.30;;;18.10;98.00;;;;;;5092291;28;20460;-73
2021/06/27 05:43:19;;;;;;;1.97;1.50;;;18.10;98.00;;;;;;5095199;28;20460;-73
2021/06/27 05:45:47;;;;;;;2.17;1.57;;;18.20;98.00;;;;;;5092155;28;20867;-72
2021/06/27 05:48:14;;;;;;;1.50;1.20;;;18.20;98.00;;;;;;5095192;28;20463;-73
2021/06/27 05:50:41;;;;;;;1.60;1.50;;;18.30;98.00;;;;;;5091215;28;20464;-73
2021/06/27 05:53:09;;;;;;;2.20;1.57;;;18.40;98.00;;;;;;5094893;28;20536;-73
2021/06/27 05:55:40;;;;;;;1.90;1.53;;;18.50;98.00;;;;;;5091649;28;20513;-73
2021/06/27 05:58:07;;;;;;;1.53;1.50;;;18.70;98.00;;;;;;5094623;28;20497;-73
2021/06/27 06:00:54;;;;;;;1.93;1.37;;;18.80;98.00;;;;;;5091452;28;20478;-72
2021/06/27 06:03:21;;;;;;;1.70;1.60;;;18.90;98.00;;;;;;5094730;28;20958;-72
2021/06/27 06:05:48;;;;;;;2.23;2.03;;;19.00;98.00;;;;;;5091377;28;20528;-72
2021/06/27 06:08:17;;;;;;;1.83;1.40;;;18.90;98.00;;;;;;5094576;28;20456;-72
2021/06/27 06:10:55;;;;;;;1.27;1.10;;;19.10;98.00;;;;;;5091122;28;21059;-73
2021/06/27 06:13:22;;;;;;;1.87;1.47;;;19.00;98.00;;;;;;5094409;28;20459;-73
2021/06/27 06:15:57;;;;;;;1.20;1.20;;;19.00;98.00;;;;;;5091067;28;21340;-73
2021/06/27 06:18:24;;;;;;;2.43;1.53;;;19.10;98.00;;;;;;5094098;28;20893;-72
2021/06/27 06:20:57;;;;;;;1.40;1.40;;;19.10;98.00;;;;;;5090905;28;20488;-72
2021/06/27 06:23:26;;;;;;;2.97;1.60;;;19.10;98.00;;;;;;5092679;28;21019;-72
2021/06/27 06:25:58;;;;;;;1.83;1.73;;;19.10;98.00;;;;;;5091553;28;20987;-72
2021/06/27 06:28:25;;;;;;;1.87;1.87;;;19.10;98.00;;;;;;5094182;28;20808;-72
2021/06/27 06:30:54;;;;;;;1.57;1.47;;;19.20;98.00;;;;;;5091333;28;20525;-72
2021/06/27 06:33:21;;;;;;;1.57;1.43;;;19.20;98.00;;;;;;5093150;28;20452;-73
2021/06/27 06:35:49;;;;;;;1.50;1.40;;;19.30;98.00;;;;;;5090095;28;20517;-73
2021/06/27 06:38:16;;;;;;;1.20;1.20;;;19.40;98.00;;;;;;5093765;28;20501;-72
2021/06/27 06:40:45;;;;;;;1.77;1.70;;;19.40;98.00;;;;;;5091035;28;20509;-72
2021/06/27 06:43:12;;;;;;;1.53;1.50;;;19.40;98.00;;;;;;5093811;28;20452;-73
2021/06/27 06:45:42;;;;;;;1.80;1.20;;;19.60;98.00;;;;;;5090946;28;20456;-73
2021/06/27 06:48:09;;;;;;;1.80;1.30;;;19.70;98.00;;;;;;5093416;28;20893;-72
2021/06/27 06:50:37;;;;;;;1.80;1.30;;;19.80;98.00;;;;;;5090711;28;20492;-73
2021/06/27 06:53:05;;;;;;;1.30;1.30;;;19.90;98.00;;;;;;5093733;28;20990;-73
2021/06/27 06:55:32;;;;;;;3.20;1.83;;;19.90;98.00;;;;;;5090589;28;20509;-73
2021/06/27 06:58:00;;;;;;;3.00;2.03;;;20.10;98.00;;;;;;5092484;28;20456;-72
2021/06/27 07:00:30;;;;;;;1.40;1.40;;;20.30;98.00;;;;;;5090643;28;20480;-72
2021/06/27 07:02:58;;;;;;;1.70;1.60;;;20.40;98.00;;;;;;5093456;28;20452;-73
2021/06/27 07:05:25;;;;;;;1.57;1.50;;;20.60;98.00;;;;;;5090465;28;20452;-74
2021/06/27 07:07:52;;;;;;;1.63;1.50;;;20.90;98.00;;;;;;5092855;28;20799;-73
2021/06/27 07:10:19;;;;;;;1.93;1.50;;;21.00;98.00;;;;;;5090532;28;20984;-73
2021/06/27 07:12:46;;;;;;;3.07;1.67;;;21.00;98.00;;;;;;5093292;28;20506;-74
2021/06/27 07:15:16;;;;;;;1.90;1.50;;;21.10;98.00;;;;;;5090741;28;20502;-72
2021/06/27 07:17:43;;;;;;;1.77;1.43;;;21.20;98.00;;;;;;5093828;28;20524;-73
2021/06/27 07:20:12;;;;;;;2.40;1.70;;;21.30;98.00;;;;;;5090503;28;20479;-74
2021/06/27 07:22:40;;;;;;;2.13;1.77;;;21.40;98.00;;;;;;5093447;28;20542;-74
2021/06/27 07:25:08;;;;;;;5.30;2.17;;;21.40;98.00;;;;;;5090468;28;20456;-74
2021/06/27 07:27:35;;;;;;;2.00;1.80;;;21.50;98.00;;;;;;5093029;28;20509;-74
2021/06/27 07:30:04;;;;;;;1.60;1.50;;;21.50;98.00;;;;;;5089488;28;20494;-73
2021/06/27 07:32:32;;;;;;;2.50;1.60;;;21.50;98.00;;;;;;5092990;28;20513;-74
2021/06/27 07:34:59;;;;;;;2.90;1.90;;;21.60;98.00;;;;;;5090233;28;20451;-73
2021/06/27 07:37:26;;;;;;;1.80;1.40;;;21.70;98.00;;;;;;5092718;28;20463;-73
2021/06/27 07:39:54;;;;;;;1.73;1.47;;;21.90;98.00;;;;;;5090282;28;20476;-74
2021/06/27 07:42:21;;;;;;;2.47;1.80;;;22.00;98.00;;;;;;5092824;28;20459;-74
2021/06/27 07:44:49;;;;;;;2.53;1.60;;;22.10;98.00;;;;;;5092786;28;20456;-74
2021/06/27 07:47:16;;;;;;;1.80;1.60;;;22.30;98.00;;;;;;5091372;28;20448;-75
2021/06/27 07:49:45;;;;;;;1.97;1.73;;;22.50;98.00;;;;;;5092838;28;20459;-73
2021/06/27 07:52:12;;;;;;;1.50;1.33;;;22.60;98.00;;;;;;5089754;28;20513;-73
2021/06/27 07:54:39;;;;;;;1.63;1.40;;;22.80;98.00;;;;;;5092629;28;20851;-73
2021/06/27 07:57:09;;;;;;;1.60;1.30;;;23.00;98.00;;;;;;5088289;28;20520;-71
2021/06/27 07:59:36;;;;;;;2.50;1.87;;;23.10;98.00;;;;;;5091847;28;20545;-73
2021/06/27 08:02:04;;;;;;;2.07;1.53;;;23.10;98.00;;;;;;5089396;28;20452;-73
2021/06/27 08:04:31;;;;;;;1.97;1.83;;;23.00;98.00;;;;;;5091504;28;20942;-70
2021/06/27 08:06:59;;;;;;;1.77;1.60;;;23.00;98.00;;;;;;5089042;28;20460;-70
2021/06/27 08:09:26;;;;;;;1.67;1.50;;;23.10;98.00;;;;;;5090360;28;21111;-70
2021/06/27 08:11:55;;;;;;;1.40;1.23;;;23.20;98.00;;;;;;5088873;28;20558;-71
2021/06/27 08:14:22;;;;;;;1.63;1.50;;;23.50;98.00;;;;;;5091254;28;20513;-70
2021/06/27 08:16:50;;;;;;;1.47;1.43;;;23.80;98.00;;;;;;5089009;28;20456;-71
2021/06/27 08:19:17;;;;;;;2.17;1.57;;;23.90;98.00;;;;;;5091469;28;20484;-71
2021/06/27 08:21:46;;;;;;;1.40;1.40;;;24.00;98.00;;;;;;5089319;28;20506;-72
2021/06/27 08:24:14;;;;;;;1.30;1.30;;;24.20;98.00;;;;;;5090682;28;20456;-72
2021/06/27 08:26:41;;;;;;;1.30;1.20;;;24.40;98.00;;;;;;5087786;28;20459;-73
2021/06/27 08:29:08;;;;;;;1.50;1.47;;;24.50;98.00;;;;;;5091618;28;20503;-72
2021/06/27 08:31:35;;;;;;;1.80;1.60;;;24.60;98.00;;;;;;5089000;28;20455;-73
2021/06/27 08:34:02;;;;;;;1.40;1.37;;;24.70;98.00;;;;;;5091991;28;20801;-74
2021/06/27 08:36:30;;;;;;;1.67;1.47;;;24.80;98.00;;;;;;5089140;28;20463;-73
2021/06/27 08:38:57;;;;;;;1.57;1.40;;;24.90;98.00;;;;;;5091821;28;20517;-73
2021/06/27 08:41:25;;;;;;;2.20;1.80;;;25.10;98.00;;;;;;5086783;28;20464;-74
2021/06/27 08:43:52;;;;;;;1.70;1.63;;;25.20;96.30;;;;;;5091828;28;20541;-73
2021/06/27 08:46:21;;;;;;;1.50;1.47;;;25.30;94.80;;;;;;5087476;28;21091;-73
2021/06/27 08:48:48;;;;;;;1.37;1.30;;;25.30;94.50;;;;;;5091238;28;20456;-74
2021/06/27 08:51:15;;;;;;;2.07;1.33;;;25.40;94.60;;;;;;5088147;28;20491;-71
2021/06/27 08:53:43;;;;;;;1.50;1.30;;;25.50;93.80;;;;;;5091043;28;20452;-72
2021/06/27 08:56:12;;;;;;;1.50;1.20;;;25.50;91.40;;;;;;5088155;28;20517;-72
2021/06/27 08:58:42;;;;;;;1.60;1.30;;;25.70;91.60;;;;;;5091201;28;20521;-73
2021/06/27 09:01:13;;;;;;;1.90;1.70;;;25.80;93.50;;;;;;5088166;28;20492;-72
2021/06/27 09:03:40;;;;;;;1.30;1.30;;;25.80;89.20;;;;;;5091535;28;20471;-72
2021/06/27 09:06:10;;;;;;;1.63;1.50;;;26.00;93.20;;;;;;5088815;28;20871;-71
2021/06/27 09:08:37;;;;;;;1.47;1.47;;;26.00;93.20;;;;;;5091188;28;20865;-72
2021/06/27 09:11:14;;;;;;;2.63;1.70;;;26.10;91.10;;;;;;5088158;28;20850;-72
2021/06/27 09:13:45;;;;;;;1.40;1.40;;;26.20;90.70;;;;;;5091166;28;20455;-72
2021/06/27 09:16:22;;;;;;;1.57;1.30;;;26.30;91.40;;;;;;5088791;28;20456;-72
2021/06/27 09:18:49;;;;;;;1.23;1.13;;;26.40;92.10;;;;;;5091023;28;20548;-72
2021/06/27 09:21:16;;;;;;;2.80;1.97;;;26.60;89.40;;;;;;5088063;28;20520;-72
2021/06/27 09:23:49;;;;;;;1.40;1.30;;;26.70;90.00;;;;;;5091121;28;20529;-73
2021/06/27 09:26:29;;;;;;;1.60;1.40;;;26.70;88.90;;;;;;5088117;28;20845;-73
2021/06/27 09:28:58;;;;;;;1.30;1.20;;;26.70;88.50;;;;;;5090966;28;20459;-75
2021/06/27 09:31:40;;;;;;;1.40;1.30;;;26.70;87.50;;;;;;5086924;28;20824;-77
2021/06/27 09:34:09;;;;;;;2.00;1.50;;;26.80;87.40;;;;;;5091086;28;20547;-75
2021/06/27 09:36:39;;;;;;;1.80;1.60;;;26.90;85.40;;;;;;5088706;28;20456;-74
2021/06/27 09:39:14;;;;;;;2.33;1.50;;;27.10;86.30;;;;;;5090837;28;20492;-76
2021/06/27 09:41:50;;;;;;;1.37;1.33;;;27.20;85.30;;;;;;5086604;28;20543;-75
2021/06/27 09:44:21;;;;;;;1.80;1.60;;;27.30;86.90;;;;;;5090714;28;20537;-72
2021/06/27 09:46:50;;;;;;;1.27;1.23;;;27.30;83.10;;;;;;5088411;28;20816;-72
2021/06/27 09:49:19;;;;;;;1.80;1.53;;;27.30;83.40;;;;;;5090653;28;20535;-77
2021/06/27 09:51:51;;;;;;;1.50;1.30;;;27.40;83.30;;;;;;5087826;28;20455;-76
2021/06/27 09:54:21;;;;;;;1.60;1.40;;;27.50;82.40;;;;;;5077430;28;20863;-75
2021/06/27 09:56:49;;;;;;;1.80;1.40;;;27.60;83.10;;;;;;5071418;28;20877;-74
2021/06/27 09:59:19;;;;;;;2.03;1.40;;;27.70;83.70;;;;;;5074101;28;20457;-74
2021/06/27 10:01:47;;;;;;;1.60;1.47;;;27.90;83.40;;;;;;5071170;28;20531;-74
2021/06/27 10:04:26;;;;;;;1.90;1.60;;;28.00;82.40;;;;;;5073359;28;20993;-74
2021/06/27 10:06:55;;;;;;;2.30;1.57;;;28.10;82.50;;;;;;5071297;28;20552;-73
2021/06/27 10:09:24;;;;;;;1.70;1.70;;;28.20;83.60;;;;;;5075382;28;20452;-73
2021/06/27 10:12:00;;;;;;;1.47;1.33;;;28.30;83.90;;;;;;5071201;28;20510;-73
2021/06/27 10:14:30;;;;;;;1.40;1.37;;;28.40;82.40;;;;;;5073836;28;20457;-74
2021/06/27 10:16:58;;;;;;;1.87;1.47;;;28.60;81.00;;;;;;5057245;28;20465;-75
2021/06/27 10:19:26;;;;;;;1.60;1.50;;;28.70;79.80;;;;;;5053726;28;20944;-73
2021/06/27 10:21:55;;;;;;;1.80;1.60;;;28.90;81.40;;;;;;5051000;28;20457;-73
2021/06/27 10:24:24;;;;;;;1.73;1.53;;;29.00;81.30;;;;;;5053449;28;20461;-73
2021/06/27 10:26:52;;;;;;;1.40;1.30;;;29.00;80.00;;;;;;5057014;28;20970;-73
2021/06/27 10:29:20;;;;;;;1.97;1.67;;;28.80;79.80;;;;;;5072042;28;20496;-73
2021/06/27 10:31:51;;;;;;;2.83;2.10;;;28.90;80.80;;;;;;5070928;28;20924;-73
2021/06/27 10:34:19;;;;;;;1.87;1.50;;;29.00;79.30;;;;;;5053362;28;20534;-72
2021/06/27 10:36:50;;;;;;;2.90;1.63;;;29.30;80.70;;;;;;5051066;28;20515;-77
2021/06/27 10:39:19;;;;;;;1.30;1.30;;;29.40;80.10;;;;;;5053379;28;20549;-75
2021/06/27 10:41:52;;;;;;;1.90;1.80;;;29.60;79.50;;;;;;5049457;28;20454;-74
2021/06/27 10:44:20;;;;;;;2.63;1.67;;;29.50;80.60;;;;;;5053522;28;20477;-73
2021/06/27 10:46:50;;;;;;;1.63;1.33;;;29.50;77.30;;;;;;5050466;28;20462;-74
2021/06/27 10:50:04;;;;;;;2.10;1.70;;;29.30;80.10;;;;;;5052416;28;20453;-74
2021/06/27 10:52:59;;;;;;;1.40;1.30;;;29.20;80.20;;;;;;5049835;28;20857;-75
2021/06/27 10:55:27;;;;;;;1.73;1.40;;;29.20;80.80;;;;;;5049981;28;20458;-74
2021/06/27 10:58:06;;;;;;;1.73;1.50;;;29.40;80.20;;;;;;5052195;28;20465;-73
2021/06/27 11:01:02;;;;;;;1.97;1.50;;;29.70;80.00;;;;;;5066067;28;20491;-74
2021/06/27 11:03:42;;;;;;;2.47;1.80;;;30.00;76.50;;;;;;5072321;28;20519;-74
2021/06/27 11:06:37;;;;;;;1.60;1.40;;;30.20;77.30;;;;;;5051434;28;20871;-74
2021/06/27 11:09:29;;;;;;;2.33;1.40;;;30.20;77.10;;;;;;5052215;28;20529;-74
2021/06/27 11:11:58;;;;;;;1.67;1.30;;;30.10;75.70;;;;;;5050133;28;20466;-73
2021/06/27 11:14:26;;;;;;;1.83;1.50;;;30.00;76.40;;;;;;5051836;28;20461;-72
2021/06/27 11:17:03;;;;;;;2.33;1.80;;;30.20;75.50;;;;;;5048596;28;20454;-76
2021/06/27 11:19:33;;;;;;;1.73;1.57;;;30.40;75.80;;;;;;5051658;28;20462;-78
2021/06/27 11:22:17;;;;;;;1.77;1.60;;;30.60;74.20;;;;;;5049439;28;20533;-76
2021/06/27 11:24:45;;;;;;;1.60;1.40;;;30.80;73.50;;;;;;5051779;28;20663;-76
2021/06/27 11:27:28;;;;;;;1.93;1.67;;;30.80;74.60;;;;;;5049637;28;20449;-77
2021/06/27 11:29:56;;;;;;;1.97;1.60;;;31.10;71.60;;;;;;5047537;28;20476;-76
2021/06/27 11:32:50;;;;;;;1.80;1.50;;;31.10;72.80;;;;;;5049371;28;20442;-76
2021/06/27 11:35:47;;;;;;;1.70;1.53;;;31.20;73.30;;;;;;5049444;28;20515;-75
2021/06/27 11:38:51;;;;;;;1.87;1.50;;;31.40;72.10;;;;;;5051759;28;20458;-76
2021/06/27 11:41:37;;;;;;;1.97;1.47;;;31.60;73.60;;;;;;5049063;28;20489;-75
2021/06/27 11:44:05;;;;;;;1.90;1.53;;;31.70;70.80;;;;;;5050138;28;20511;-77
2021/06/27 11:46:35;;;;;;;2.13;1.60;;;31.60;70.60;;;;;;5048952;28;20552;-75
2021/06/27 11:49:05;;;;;;;1.80;1.50;;;31.80;70.70;;;;;;5051188;28;20492;-77
2021/06/27 11:51:40;;;;;;;1.70;1.50;;;32.00;71.00;;;;;;5048623;28;20948;-76
2021/06/27 11:54:09;;;;;;;1.87;1.70;;;31.80;68.70;;;;;;5051110;28;20540;-80
2021/06/27 11:57:04;;;;;;;1.77;1.40;;;32.00;71.70;;;;;;5049096;28;21030;-76
2021/06/27 11:59:36;;;;;;;1.87;1.30;;;32.20;70.90;;;;;;5026771;28;20498;-75
2021/06/27 12:02:08;;;;;;;1.90;1.57;;;32.10;69.00;;;;;;5048620;28;20547;-72
2021/06/27 12:04:40;;;;;;;1.80;1.47;;;32.10;71.10;;;;;;5066034;28;20480;-75
2021/06/27 12:07:26;;;;;;;1.90;1.57;;;32.20;69.10;;;;;;5068877;28;20461;-74
2021/06/27 12:09:53;;;;;;;2.10;1.73;;;32.30;69.40;;;;;;5070701;28;20510;-76
2021/06/27 12:12:34;;;;;;;2.47;1.57;;;32.40;68.80;;;;;;5068604;28;20970;-76
2021/06/27 12:15:01;;;;;;;2.17;1.60;;;32.60;68.20;;;;;;5070756;28;20460;-75
2021/06/27 12:17:28;;;;;;;1.70;1.67;;;32.70;68.80;;;;;;5068506;28;20510;-75
2021/06/27 12:19:55;;;;;;;2.57;1.70;;;32.70;66.70;;;;;;5070553;28;20818;-76
2021/06/27 12:22:22;;;;;;;2.03;1.57;;;32.80;66.00;;;;;;5067291;28;20947;-79
2021/06/27 12:24:51;;;;;;;1.77;1.53;;;32.90;67.20;;;;;;5071538;28;20573;-78
2021/06/27 12:27:19;;;;;;;1.70;1.40;;;32.90;67.20;;;;;;5069410;28;20514;-80
2021/06/27 12:29:53;;;;;;;2.30;1.63;;;33.20;67.30;;;;;;5070322;28;20463;-77
2021/06/27 12:32:21;;;;;;;1.80;1.60;;;33.10;65.20;;;;;;5067198;28;20489;-79
2021/06/27 12:34:50;;;;;;;1.80;1.60;;;32.90;67.30;;;;;;5069626;28;20464;-80
2021/06/27 12:37:18;;;;;;;2.03;1.63;;;32.90;66.90;;;;;;5068817;28;20467;-79
2021/06/27 12:39:45;;;;;;;2.47;1.77;;;32.80;66.60;;;;;;5069955;28;20464;-80
2021/06/27 12:42:16;;;;;;;1.70;1.70;;;32.60;66.50;;;;;;5067998;28;20570;-81
2021/06/27 12:44:44;;;;;;;1.97;1.80;;;32.40;68.30;;;;;;5069558;28;20488;-80
2021/06/27 12:47:12;;;;;;;2.00;1.77;;;32.40;68.60;;;;;;5068721;28;20507;-80
2021/06/27 12:49:50;;;;;;;2.03;1.67;;;32.60;68.70;;;;;;5069326;28;21104;-80
2021/06/27 12:52:17;;;;;;;1.50;1.40;;;32.60;69.60;;;;;;5068478;28;20445;-80
2021/06/27 12:54:46;;;;;;;1.60;1.60;;;32.70;69.00;;;;;;5070784;28;20453;-79
2021/06/27 12:57:22;;;;;;;1.67;1.50;;;32.80;66.50;;;;;;5068547;28;20506;-80
2021/06/27 12:59:51;;;;;;;2.13;1.60;;;32.70;66.40;;;;;;5070640;28;20460;-80
2021/06/27 13:02:22;;;;;;;2.33;1.50;;;32.80;66.00;;;;;;5068568;28;20487;-80
2021/06/27 13:04:57;;;;;;;1.97;1.70;;;33.00;67.20;;;;;;5070696;28;20809;-79